sensor_id;sensor_type;location;lat;lon;timestamp;P1;durP1;ratioP1;P2;durP2;ratioP2
39740;SDS011;25426;53.478;10.190;2022-07-17T00:00:46;8.35;;;2.97;;
39740;SDS011;25426;53.478;10.190;2022-07-17T00:03:17;8.68;;;3.25;;
39740;SDS011;25426;53.478;10.190;2022-07-17T00:05:48;4.72;;;2.72;;
39740;SDS011;25426;53.478;10.190;2022-07-17T00:08:19;9.48;;;3.17;;
39740;SDS011;25426;53.478;10.190;2022-07-17T00:10:50;3.42;;;2.38;;
39740;SDS011;25426;53.478;10.190;2022-07-17T00:13:21;10.18;;;3.17;;
39740;SDS011;25426;53.478;10.190;2022-07-17T00:15:52;6.60;;;2.90;;
39740;SDS011;25426;53.478;10.190;2022-07-17T00:18:23;7.15;;;2.45;;
39740;SDS011;25426;53.478;10.190;2022-07-17T00:20:54;11.30;;;3.47;;
39740;SDS011;25426;53.478;10.190;2022-07-17T00:23:25;8.77;;;3.40;;
39740;SDS011;25426;53.478;10.190;2022-07-17T00:25:56;9.75;;;3.40;;
39740;SDS011;25426;53.478;10.190;2022-07-17T00:28:26;7.53;;;2.88;;
39740;SDS011;25426;53.478;10.190;2022-07-17T00:30:57;8.82;;;3.15;;
39740;SDS011;25426;53.478;10.190;2022-07-17T00:33:28;7.75;;;2.75;;
39740;SDS011;25426;53.478;10.190;2022-07-17T00:35:59;7.40;;;3.25;;
39740;SDS011;25426;53.478;10.190;2022-07-17T00:38:30;13.77;;;3.97;;
39740;SDS011;25426;53.478;10.190;2022-07-17T00:41:01;5.88;;;2.72;;
39740;SDS011;25426;53.478;10.190;2022-07-17T00:43:32;7.85;;;2.90;;
39740;SDS011;25426;53.478;10.190;2022-07-17T00:46:03;8.02;;;3.22;;
39740;SDS011;25426;53.478;10.190;2022-07-17T00:48:34;7.15;;;3.45;;
39740;SDS011;25426;53.478;10.190;2022-07-17T00:51:04;11.55;;;3.53;;
39740;SDS011;25426;53.478;10.190;2022-07-17T00:53:37;11.65;;;3.88;;
39740;SDS011;25426;53.478;10.190;2022-07-17T00:56:08;7.10;;;3.78;;
39740;SDS011;25426;53.478;10.190;2022-07-17T00:58:39;12.82;;;3.95;;
39740;SDS011;25426;53.478;10.190;2022-07-17T01:01:10;14.85;;;4.50;;
39740;SDS011;25426;53.478;10.190;2022-07-17T01:03:40;11.55;;;3.70;;
39740;SDS011;25426;53.478;10.190;2022-07-17T01:06:11;16.13;;;4.00;;
39740;SDS011;25426;53.478;10.190;2022-07-17T01:08:43;6.65;;;3.50;;
39740;SDS011;25426;53.478;10.190;2022-07-17T01:11:14;9.35;;;3.47;;
39740;SDS011;25426;53.478;10.190;2022-07-17T01:13:45;8.82;;;4.22;;
39740;SDS011;25426;53.478;10.190;2022-07-17T01:16:16;8.60;;;3.40;;
39740;SDS011;25426;53.478;10.190;2022-07-17T01:18:47;9.52;;;4.18;;
39740;SDS011;25426;53.478;10.190;2022-07-17T01:21:18;9.98;;;3.33;;
39740;SDS011;25426;53.478;10.190;2022-07-17T01:23:49;11.55;;;3.47;;
39740;SDS011;25426;53.478;10.190;2022-07-17T01:26:19;13.23;;;4.55;;
39740;SDS011;25426;53.478;10.190;2022-07-17T01:28:50;8.65;;;3.17;;
39740;SDS011;25426;53.478;10.190;2022-07-17T01:31:21;8.80;;;3.65;;
39740;SDS011;25426;53.478;10.190;2022-07-17T01:33:52;6.97;;;3.03;;
39740;SDS011;25426;53.478;10.190;2022-07-17T01:36:23;9.25;;;3.10;;
39740;SDS011;25426;53.478;10.190;2022-07-17T01:38:54;6.03;;;3.40;;
39740;SDS011;25426;53.478;10.190;2022-07-17T01:41:26;7.80;;;3.42;;
39740;SDS011;25426;53.478;10.190;2022-07-17T01:43:57;8.30;;;3.33;;
39740;SDS011;25426;53.478;10.190;2022-07-17T01:46:28;9.43;;;3.00;;
39740;SDS011;25426;53.478;10.190;2022-07-17T01:48:59;11.82;;;3.35;;
39740;SDS011;25426;53.478;10.190;2022-07-17T01:51:33;15.05;;;3.25;;
39740;SDS011;25426;53.478;10.190;2022-07-17T01:54:04;9.68;;;3.28;;
39740;SDS011;25426;53.478;10.190;2022-07-17T01:56:35;11.13;;;3.85;;
39740;SDS011;25426;53.478;10.190;2022-07-17T01:59:05;6.13;;;2.92;;
39740;SDS011;25426;53.478;10.190;2022-07-17T02:01:36;6.93;;;2.88;;
39740;SDS011;25426;53.478;10.190;2022-07-17T02:04:07;7.00;;;3.58;;
39740;SDS011;25426;53.478;10.190;2022-07-17T02:06:38;9.00;;;3.85;;
39740;SDS011;25426;53.478;10.190;2022-07-17T02:09:09;6.10;;;2.40;;
39740;SDS011;25426;53.478;10.190;2022-07-17T02:11:39;9.10;;;3.42;;
39740;SDS011;25426;53.478;10.190;2022-07-17T02:14:10;12.43;;;4.40;;
39740;SDS011;25426;53.478;10.190;2022-07-17T02:16:41;12.30;;;4.47;;
39740;SDS011;25426;53.478;10.190;2022-07-17T02:19:12;7.90;;;3.63;;
39740;SDS011;25426;53.478;10.190;2022-07-17T02:21:43;6.07;;;3.40;;
39740;SDS011;25426;53.478;10.190;2022-07-17T02:24:14;11.60;;;4.47;;
39740;SDS011;25426;53.478;10.190;2022-07-17T02:26:45;12.30;;;4.90;;
39740;SDS011;25426;53.478;10.190;2022-07-17T02:29:15;8.25;;;4.53;;
39740;SDS011;25426;53.478;10.190;2022-07-17T02:31:46;11.75;;;3.83;;
39740;SDS011;25426;53.478;10.190;2022-07-17T02:34:17;11.57;;;4.45;;
39740;SDS011;25426;53.478;10.190;2022-07-17T02:36:48;9.68;;;4.32;;
39740;SDS011;25426;53.478;10.190;2022-07-17T02:39:19;6.82;;;3.70;;
39740;SDS011;25426;53.478;10.190;2022-07-17T02:41:49;7.72;;;3.50;;
39740;SDS011;25426;53.478;10.190;2022-07-17T02:44:20;11.75;;;3.97;;
39740;SDS011;25426;53.478;10.190;2022-07-17T02:46:51;10.63;;;3.65;;
39740;SDS011;25426;53.478;10.190;2022-07-17T02:49:22;7.75;;;3.47;;
39740;SDS011;25426;53.478;10.190;2022-07-17T02:51:53;13.05;;;4.40;;
39740;SDS011;25426;53.478;10.190;2022-07-17T02:54:23;8.23;;;3.35;;
39740;SDS011;25426;53.478;10.190;2022-07-17T02:56:54;9.15;;;3.92;;
39740;SDS011;25426;53.478;10.190;2022-07-17T02:59:25;11.25;;;4.00;;
39740;SDS011;25426;53.478;10.190;2022-07-17T03:01:56;11.60;;;3.67;;
39740;SDS011;25426;53.478;10.190;2022-07-17T03:04:27;8.90;;;4.03;;
39740;SDS011;25426;53.478;10.190;2022-07-17T03:06:58;6.30;;;2.97;;
39740;SDS011;25426;53.478;10.190;2022-07-17T03:09:29;9.07;;;3.88;;
39740;SDS011;25426;53.478;10.190;2022-07-17T03:11:59;12.60;;;4.38;;
39740;SDS011;25426;53.478;10.190;2022-07-17T03:14:30;10.05;;;3.88;;
39740;SDS011;25426;53.478;10.190;2022-07-17T03:17:01;8.15;;;3.70;;
39740;SDS011;25426;53.478;10.190;2022-07-17T03:19:32;10.05;;;3.83;;
39740;SDS011;25426;53.478;10.190;2022-07-17T03:22:03;9.30;;;3.22;;
39740;SDS011;25426;53.478;10.190;2022-07-17T03:24:34;12.13;;;4.15;;
39740;SDS011;25426;53.478;10.190;2022-07-17T03:27:05;8.80;;;3.83;;
39740;SDS011;25426;53.478;10.190;2022-07-17T03:29:36;11.50;;;3.67;;
39740;SDS011;25426;53.478;10.190;2022-07-17T03:32:06;5.57;;;3.10;;
39740;SDS011;25426;53.478;10.190;2022-07-17T03:34:37;10.73;;;3.70;;
39740;SDS011;25426;53.478;10.190;2022-07-17T03:37:08;10.13;;;3.42;;
39740;SDS011;25426;53.478;10.190;2022-07-17T03:39:39;8.73;;;3.40;;
39740;SDS011;25426;53.478;10.190;2022-07-17T03:42:10;7.05;;;3.03;;
39740;SDS011;25426;53.478;10.190;2022-07-17T03:44:41;8.45;;;3.22;;
39740;SDS011;25426;53.478;10.190;2022-07-17T03:47:12;7.88;;;3.30;;
39740;SDS011;25426;53.478;10.190;2022-07-17T03:49:42;9.20;;;3.75;;
39740;SDS011;25426;53.478;10.190;2022-07-17T03:52:13;8.80;;;3.67;;
39740;SDS011;25426;53.478;10.190;2022-07-17T03:54:44;9.82;;;3.53;;
39740;SDS011;25426;53.478;10.190;2022-07-17T03:57:15;11.55;;;3.50;;
39740;SDS011;25426;53.478;10.190;2022-07-17T03:59:46;8.63;;;3.35;;
39740;SDS011;25426;53.478;10.190;2022-07-17T04:02:17;8.88;;;3.45;;
39740;SDS011;25426;53.478;10.190;2022-07-17T04:04:47;8.90;;;2.97;;
39740;SDS011;25426;53.478;10.190;2022-07-17T04:07:18;6.60;;;3.33;;
39740;SDS011;25426;53.478;10.190;2022-07-17T04:09:59;8.63;;;3.28;;
39740;SDS011;25426;53.478;10.190;2022-07-17T04:12:29;10.75;;;3.53;;
39740;SDS011;25426;53.478;10.190;2022-07-17T04:15:00;11.73;;;3.53;;
39740;SDS011;25426;53.478;10.190;2022-07-17T04:17:32;6.70;;;3.03;;
39740;SDS011;25426;53.478;10.190;2022-07-17T04:20:03;9.63;;;3.00;;
39740;SDS011;25426;53.478;10.190;2022-07-17T04:22:35;13.18;;;3.22;;
39740;SDS011;25426;53.478;10.190;2022-07-17T04:25:06;10.68;;;3.75;;
39740;SDS011;25426;53.478;10.190;2022-07-17T04:27:37;8.77;;;3.33;;
39740;SDS011;25426;53.478;10.190;2022-07-17T04:30:08;9.32;;;3.05;;
39740;SDS011;25426;53.478;10.190;2022-07-17T04:32:39;8.25;;;2.85;;
39740;SDS011;25426;53.478;10.190;2022-07-17T04:35:10;7.90;;;3.20;;
39740;SDS011;25426;53.478;10.190;2022-07-17T04:37:41;6.68;;;3.08;;
39740;SDS011;25426;53.478;10.190;2022-07-17T04:40:12;9.40;;;2.95;;
39740;SDS011;25426;53.478;10.190;2022-07-17T04:42:42;7.82;;;3.13;;
39740;SDS011;25426;53.478;10.190;2022-07-17T04:45:13;8.98;;;3.67;;
39740;SDS011;25426;53.478;10.190;2022-07-17T04:47:44;9.70;;;3.03;;
39740;SDS011;25426;53.478;10.190;2022-07-17T04:50:15;6.93;;;2.78;;
39740;SDS011;25426;53.478;10.190;2022-07-17T04:52:46;8.32;;;2.85;;
39740;SDS011;25426;53.478;10.190;2022-07-17T04:55:17;8.48;;;3.00;;
39740;SDS011;25426;53.478;10.190;2022-07-17T04:57:48;10.02;;;3.25;;
39740;SDS011;25426;53.478;10.190;2022-07-17T05:00:19;10.25;;;2.92;;
39740;SDS011;25426;53.478;10.190;2022-07-17T05:02:50;5.68;;;2.90;;
39740;SDS011;25426;53.478;10.190;2022-07-17T05:05:21;7.80;;;3.15;;
39740;SDS011;25426;53.478;10.190;2022-07-17T05:07:52;7.60;;;2.83;;
39740;SDS011;25426;53.478;10.190;2022-07-17T05:10:23;10.40;;;3.65;;
39740;SDS011;25426;53.478;10.190;2022-07-17T05:12:54;7.03;;;2.90;;
39740;SDS011;25426;53.478;10.190;2022-07-17T05:15:25;5.97;;;2.95;;
39740;SDS011;25426;53.478;10.190;2022-07-17T05:17:55;9.50;;;2.90;;
39740;SDS011;25426;53.478;10.190;2022-07-17T05:20:26;6.53;;;2.97;;
39740;SDS011;25426;53.478;10.190;2022-07-17T05:22:57;4.75;;;2.85;;
39740;SDS011;25426;53.478;10.190;2022-07-17T05:25:28;9.95;;;3.25;;
39740;SDS011;25426;53.478;10.190;2022-07-17T05:27:59;8.20;;;2.70;;
39740;SDS011;25426;53.478;10.190;2022-07-17T05:30:30;8.27;;;3.38;;
39740;SDS011;25426;53.478;10.190;2022-07-17T05:33:00;12.02;;;2.55;;
39740;SDS011;25426;53.478;10.190;2022-07-17T05:35:31;9.23;;;2.97;;
39740;SDS011;25426;53.478;10.190;2022-07-17T05:38:02;7.75;;;2.45;;
39740;SDS011;25426;53.478;10.190;2022-07-17T05:40:35;7.50;;;2.88;;
39740;SDS011;25426;53.478;10.190;2022-07-17T05:43:06;5.43;;;2.42;;
39740;SDS011;25426;53.478;10.190;2022-07-17T05:45:37;8.13;;;2.97;;
39740;SDS011;25426;53.478;10.190;2022-07-17T05:48:09;8.95;;;2.35;;
39740;SDS011;25426;53.478;10.190;2022-07-17T05:50:39;8.32;;;2.72;;
39740;SDS011;25426;53.478;10.190;2022-07-17T05:53:10;7.63;;;2.72;;
39740;SDS011;25426;53.478;10.190;2022-07-17T05:55:41;8.65;;;3.25;;
39740;SDS011;25426;53.478;10.190;2022-07-17T05:58:12;8.32;;;3.10;;
39740;SDS011;25426;53.478;10.190;2022-07-17T06:00:43;6.85;;;3.15;;
39740;SDS011;25426;53.478;10.190;2022-07-17T06:03:15;7.82;;;2.78;;
39740;SDS011;25426;53.478;10.190;2022-07-17T06:05:46;7.68;;;2.67;;
39740;SDS011;25426;53.478;10.190;2022-07-17T06:08:17;9.15;;;2.90;;
39740;SDS011;25426;53.478;10.190;2022-07-17T06:10:48;9.52;;;2.22;;
39740;SDS011;25426;53.478;10.190;2022-07-17T06:13:18;6.47;;;2.50;;
39740;SDS011;25426;53.478;10.190;2022-07-17T06:15:49;7.28;;;2.30;;
39740;SDS011;25426;53.478;10.190;2022-07-17T06:18:20;7.10;;;2.30;;
39740;SDS011;25426;53.478;10.190;2022-07-17T06:20:51;6.65;;;2.92;;
39740;SDS011;25426;53.478;10.190;2022-07-17T06:23:22;6.82;;;2.90;;
39740;SDS011;25426;53.478;10.190;2022-07-17T06:25:53;6.43;;;2.53;;
39740;SDS011;25426;53.478;10.190;2022-07-17T06:28:23;6.05;;;2.67;;
39740;SDS011;25426;53.478;10.190;2022-07-17T06:30:54;8.98;;;2.30;;
39740;SDS011;25426;53.478;10.190;2022-07-17T06:33:25;6.38;;;2.80;;
39740;SDS011;25426;53.478;10.190;2022-07-17T06:35:56;6.18;;;2.25;;
39740;SDS011;25426;53.478;10.190;2022-07-17T06:38:27;6.40;;;2.17;;
39740;SDS011;25426;53.478;10.190;2022-07-17T06:40:58;10.82;;;2.30;;
39740;SDS011;25426;53.478;10.190;2022-07-17T06:43:29;9.25;;;2.17;;
39740;SDS011;25426;53.478;10.190;2022-07-17T06:46:00;7.32;;;2.20;;
39740;SDS011;25426;53.478;10.190;2022-07-17T06:48:31;7.18;;;2.35;;
39740;SDS011;25426;53.478;10.190;2022-07-17T06:51:02;6.55;;;2.20;;
39740;SDS011;25426;53.478;10.190;2022-07-17T06:53:33;4.43;;;1.80;;
39740;SDS011;25426;53.478;10.190;2022-07-17T06:56:04;8.55;;;2.42;;
39740;SDS011;25426;53.478;10.190;2022-07-17T06:58:35;5.95;;;1.55;;
39740;SDS011;25426;53.478;10.190;2022-07-17T07:01:06;6.70;;;2.22;;
39740;SDS011;25426;53.478;10.190;2022-07-17T07:03:37;7.10;;;2.05;;
39740;SDS011;25426;53.478;10.190;2022-07-17T07:06:08;8.13;;;2.17;;
39740;SDS011;25426;53.478;10.190;2022-07-17T07:08:39;10.75;;;2.30;;
39740;SDS011;25426;53.478;10.190;2022-07-17T07:11:10;3.88;;;1.88;;
39740;SDS011;25426;53.478;10.190;2022-07-17T07:13:41;6.45;;;1.77;;
39740;SDS011;25426;53.478;10.190;2022-07-17T07:16:12;8.38;;;1.98;;
39740;SDS011;25426;53.478;10.190;2022-07-17T07:18:43;6.55;;;1.80;;
39740;SDS011;25426;53.478;10.190;2022-07-17T07:21:15;6.35;;;1.90;;
39740;SDS011;25426;53.478;10.190;2022-07-17T07:23:46;4.65;;;1.88;;
39740;SDS011;25426;53.478;10.190;2022-07-17T07:26:17;3.78;;;1.60;;
39740;SDS011;25426;53.478;10.190;2022-07-17T07:28:48;8.27;;;1.67;;
39740;SDS011;25426;53.478;10.190;2022-07-17T07:31:18;8.52;;;2.40;;
39740;SDS011;25426;53.478;10.190;2022-07-17T07:33:49;7.80;;;1.85;;
39740;SDS011;25426;53.478;10.190;2022-07-17T07:36:20;4.57;;;2.28;;
39740;SDS011;25426;53.478;10.190;2022-07-17T07:38:51;4.07;;;1.58;;
39740;SDS011;25426;53.478;10.190;2022-07-17T07:41:22;7.03;;;2.08;;
39740;SDS011;25426;53.478;10.190;2022-07-17T07:43:53;8.90;;;2.00;;
39740;SDS011;25426;53.478;10.190;2022-07-17T07:46:23;4.55;;;2.13;;
39740;SDS011;25426;53.478;10.190;2022-07-17T07:48:55;6.70;;;2.08;;
39740;SDS011;25426;53.478;10.190;2022-07-17T07:51:26;9.88;;;2.47;;
39740;SDS011;25426;53.478;10.190;2022-07-17T07:53:57;6.88;;;2.38;;
39740;SDS011;25426;53.478;10.190;2022-07-17T07:56:27;7.78;;;1.95;;
39740;SDS011;25426;53.478;10.190;2022-07-17T07:58:58;4.47;;;1.45;;
39740;SDS011;25426;53.478;10.190;2022-07-17T08:01:29;5.38;;;1.98;;
39740;SDS011;25426;53.478;10.190;2022-07-17T08:04:00;4.75;;;2.10;;
39740;SDS011;25426;53.478;10.190;2022-07-17T08:06:31;3.33;;;1.42;;
39740;SDS011;25426;53.478;10.190;2022-07-17T08:09:02;5.70;;;1.55;;
39740;SDS011;25426;53.478;10.190;2022-07-17T08:11:33;7.13;;;1.80;;
39740;SDS011;25426;53.478;10.190;2022-07-17T08:14:03;5.75;;;1.90;;
39740;SDS011;25426;53.478;10.190;2022-07-17T08:16:34;5.38;;;1.88;;
39740;SDS011;25426;53.478;10.190;2022-07-17T08:19:05;5.45;;;1.75;;
39740;SDS011;25426;53.478;10.190;2022-07-17T08:21:36;8.10;;;1.73;;
39740;SDS011;25426;53.478;10.190;2022-07-17T08:24:07;4.53;;;1.60;;
39740;SDS011;25426;53.478;10.190;2022-07-17T08:26:38;4.35;;;1.85;;
39740;SDS011;25426;53.478;10.190;2022-07-17T08:29:09;6.97;;;1.83;;
39740;SDS011;25426;53.478;10.190;2022-07-17T08:31:40;9.07;;;1.95;;
39740;SDS011;25426;53.478;10.190;2022-07-17T08:34:11;5.38;;;1.95;;
39740;SDS011;25426;53.478;10.190;2022-07-17T08:36:43;7.55;;;1.77;;
39740;SDS011;25426;53.478;10.190;2022-07-17T08:39:14;4.40;;;1.52;;
39740;SDS011;25426;53.478;10.190;2022-07-17T08:41:45;7.78;;;2.65;;
39740;SDS011;25426;53.478;10.190;2022-07-17T08:44:16;4.07;;;1.80;;
39740;SDS011;25426;53.478;10.190;2022-07-17T08:46:47;8.85;;;2.10;;
39740;SDS011;25426;53.478;10.190;2022-07-17T08:49:20;5.30;;;1.95;;
39740;SDS011;25426;53.478;10.190;2022-07-17T08:51:52;4.35;;;1.50;;
39740;SDS011;25426;53.478;10.190;2022-07-17T08:54:25;4.90;;;1.60;;
39740;SDS011;25426;53.478;10.190;2022-07-17T08:56:56;5.28;;;1.88;;
39740;SDS011;25426;53.478;10.190;2022-07-17T08:59:27;9.15;;;2.00;;
39740;SDS011;25426;53.478;10.190;2022-07-17T09:01:59;4.93;;;1.58;;
39740;SDS011;25426;53.478;10.190;2022-07-17T09:04:29;6.30;;;1.58;;
39740;SDS011;25426;53.478;10.190;2022-07-17T09:07:01;6.53;;;1.35;;
39740;SDS011;25426;53.478;10.190;2022-07-17T09:09:34;9.30;;;2.17;;
39740;SDS011;25426;53.478;10.190;2022-07-17T09:12:04;8.55;;;1.85;;
39740;SDS011;25426;53.478;10.190;2022-07-17T09:14:37;4.65;;;1.48;;
39740;SDS011;25426;53.478;10.190;2022-07-17T09:17:10;7.93;;;1.70;;
39740;SDS011;25426;53.478;10.190;2022-07-17T09:19:42;5.45;;;1.52;;
39740;SDS011;25426;53.478;10.190;2022-07-17T09:24:55;7.43;;;1.70;;
39740;SDS011;25426;53.478;10.190;2022-07-17T09:27:29;9.25;;;2.13;;
39740;SDS011;25426;53.478;10.190;2022-07-17T09:32:39;6.13;;;1.95;;
39740;SDS011;25426;53.478;10.190;2022-07-17T09:35:11;7.35;;;2.60;;
39740;SDS011;25426;53.478;10.190;2022-07-17T09:37:42;5.78;;;1.88;;
39740;SDS011;25426;53.478;10.190;2022-07-17T09:40:13;4.63;;;1.73;;
39740;SDS011;25426;53.478;10.190;2022-07-17T09:43:05;6.38;;;1.70;;
39740;SDS011;25426;53.478;10.190;2022-07-17T09:45:37;5.60;;;1.88;;
39740;SDS011;25426;53.478;10.190;2022-07-17T09:48:08;4.95;;;1.63;;
39740;SDS011;25426;53.478;10.190;2022-07-17T09:50:39;5.65;;;1.83;;
39740;SDS011;25426;53.478;10.190;2022-07-17T09:53:10;5.55;;;1.70;;
39740;SDS011;25426;53.478;10.190;2022-07-17T09:55:42;3.40;;;1.50;;
39740;SDS011;25426;53.478;10.190;2022-07-17T09:58:13;8.45;;;1.90;;
39740;SDS011;25426;53.478;10.190;2022-07-17T10:00:48;2.97;;;1.45;;
39740;SDS011;25426;53.478;10.190;2022-07-17T10:03:19;4.75;;;1.60;;
39740;SDS011;25426;53.478;10.190;2022-07-17T10:05:50;6.78;;;1.65;;
39740;SDS011;25426;53.478;10.190;2022-07-17T10:08:21;3.63;;;1.60;;
39740;SDS011;25426;53.478;10.190;2022-07-17T10:10:52;6.07;;;1.60;;
39740;SDS011;25426;53.478;10.190;2022-07-17T10:13:23;6.50;;;1.55;;
39740;SDS011;25426;53.478;10.190;2022-07-17T10:15:54;4.10;;;1.70;;
39740;SDS011;25426;53.478;10.190;2022-07-17T10:18:41;7.13;;;1.65;;
39740;SDS011;25426;53.478;10.190;2022-07-17T10:21:15;3.40;;;1.38;;
39740;SDS011;25426;53.478;10.190;2022-07-17T10:24:05;4.40;;;1.55;;
39740;SDS011;25426;53.478;10.190;2022-07-17T10:26:41;3.83;;;1.60;;
39740;SDS011;25426;53.478;10.190;2022-07-17T10:29:35;4.57;;;1.67;;
39740;SDS011;25426;53.478;10.190;2022-07-17T10:32:08;3.80;;;1.30;;
39740;SDS011;25426;53.478;10.190;2022-07-17T10:34:49;3.70;;;1.70;;
39740;SDS011;25426;53.478;10.190;2022-07-17T10:37:26;5.65;;;1.55;;
39740;SDS011;25426;53.478;10.190;2022-07-17T10:40:02;2.90;;;1.45;;
39740;SDS011;25426;53.478;10.190;2022-07-17T10:42:41;3.63;;;1.35;;
39740;SDS011;25426;53.478;10.190;2022-07-17T10:45:35;4.35;;;1.27;;
39740;SDS011;25426;53.478;10.190;2022-07-17T10:48:10;6.65;;;1.25;;
39740;SDS011;25426;53.478;10.190;2022-07-17T10:50:51;4.93;;;1.10;;
39740;SDS011;25426;53.478;10.190;2022-07-17T10:53:28;5.15;;;1.50;;
39740;SDS011;25426;53.478;10.190;2022-07-17T10:56:04;6.53;;;1.65;;
39740;SDS011;25426;53.478;10.190;2022-07-17T10:58:38;2.78;;;1.38;;
39740;SDS011;25426;53.478;10.190;2022-07-17T11:01:14;4.53;;;1.48;;
39740;SDS011;25426;53.478;10.190;2022-07-17T11:03:50;4.43;;;1.40;;
39740;SDS011;25426;53.478;10.190;2022-07-17T11:06:24;5.85;;;1.88;;
39740;SDS011;25426;53.478;10.190;2022-07-17T11:09:07;2.55;;;1.17;;
39740;SDS011;25426;53.478;10.190;2022-07-17T11:11:46;4.68;;;1.50;;
39740;SDS011;25426;53.478;10.190;2022-07-17T11:14:25;3.58;;;1.05;;
39740;SDS011;25426;53.478;10.190;2022-07-17T11:16:57;5.00;;;1.20;;
39740;SDS011;25426;53.478;10.190;2022-07-17T11:22:10;5.00;;;0.93;;
39740;SDS011;25426;53.478;10.190;2022-07-17T11:24:42;4.00;;;1.40;;
39740;SDS011;25426;53.478;10.190;2022-07-17T11:27:25;5.35;;;1.52;;
39740;SDS011;25426;53.478;10.190;2022-07-17T11:29:59;4.53;;;1.30;;
39740;SDS011;25426;53.478;10.190;2022-07-17T11:32:35;3.47;;;1.27;;
39740;SDS011;25426;53.478;10.190;2022-07-17T11:35:18;4.00;;;1.20;;
39740;SDS011;25426;53.478;10.190;2022-07-17T11:37:50;3.25;;;1.00;;
39740;SDS011;25426;53.478;10.190;2022-07-17T11:40:21;2.75;;;1.20;;
39740;SDS011;25426;53.478;10.190;2022-07-17T11:43:00;2.92;;;0.98;;
39740;SDS011;25426;53.478;10.190;2022-07-17T11:45:31;4.40;;;1.80;;
39740;SDS011;25426;53.478;10.190;2022-07-17T11:48:02;3.38;;;1.55;;
39740;SDS011;25426;53.478;10.190;2022-07-17T11:50:34;3.25;;;1.38;;
39740;SDS011;25426;53.478;10.190;2022-07-17T11:53:05;3.15;;;1.45;;
39740;SDS011;25426;53.478;10.190;2022-07-17T11:55:37;2.75;;;1.33;;
39740;SDS011;25426;53.478;10.190;2022-07-17T11:58:09;2.20;;;1.05;;
39740;SDS011;25426;53.478;10.190;2022-07-17T12:00:40;4.07;;;1.50;;
39740;SDS011;25426;53.478;10.190;2022-07-17T12:03:12;5.65;;;1.63;;
39740;SDS011;25426;53.478;10.190;2022-07-17T12:05:43;3.97;;;1.27;;
39740;SDS011;25426;53.478;10.190;2022-07-17T12:08:18;3.25;;;1.38;;
39740;SDS011;25426;53.478;10.190;2022-07-17T12:10:59;3.25;;;0.90;;
39740;SDS011;25426;53.478;10.190;2022-07-17T12:13:38;3.28;;;1.23;;
39740;SDS011;25426;53.478;10.190;2022-07-17T12:16:20;2.13;;;1.10;;
39740;SDS011;25426;53.478;10.190;2022-07-17T12:19:03;1.55;;;0.93;;
39740;SDS011;25426;53.478;10.190;2022-07-17T12:21:50;3.42;;;1.25;;
39740;SDS011;25426;53.478;10.190;2022-07-17T12:24:30;3.92;;;1.40;;
39740;SDS011;25426;53.478;10.190;2022-07-17T12:27:04;3.90;;;1.33;;
39740;SDS011;25426;53.478;10.190;2022-07-17T12:29:37;4.13;;;1.60;;
39740;SDS011;25426;53.478;10.190;2022-07-17T12:32:11;3.70;;;1.33;;
39740;SDS011;25426;53.478;10.190;2022-07-17T12:34:47;2.80;;;1.20;;
39740;SDS011;25426;53.478;10.190;2022-07-17T12:37:19;5.70;;;1.48;;
39740;SDS011;25426;53.478;10.190;2022-07-17T12:39:54;3.00;;;1.00;;
39740;SDS011;25426;53.478;10.190;2022-07-17T12:42:26;3.70;;;1.20;;
39740;SDS011;25426;53.478;10.190;2022-07-17T12:44:56;2.70;;;1.27;;
39740;SDS011;25426;53.478;10.190;2022-07-17T12:47:27;3.20;;;1.42;;
39740;SDS011;25426;53.478;10.190;2022-07-17T12:49:58;2.42;;;1.58;;
39740;SDS011;25426;53.478;10.190;2022-07-17T12:52:29;3.28;;;1.15;;
39740;SDS011;25426;53.478;10.190;2022-07-17T12:55:01;2.78;;;1.25;;
39740;SDS011;25426;53.478;10.190;2022-07-17T12:57:32;4.82;;;1.00;;
39740;SDS011;25426;53.478;10.190;2022-07-17T13:00:03;2.53;;;0.98;;
39740;SDS011;25426;53.478;10.190;2022-07-17T13:02:34;4.65;;;1.20;;
39740;SDS011;25426;53.478;10.190;2022-07-17T13:05:05;4.85;;;1.55;;
39740;SDS011;25426;53.478;10.190;2022-07-17T13:07:37;2.67;;;1.17;;
39740;SDS011;25426;53.478;10.190;2022-07-17T13:10:08;5.40;;;1.52;;
39740;SDS011;25426;53.478;10.190;2022-07-17T13:12:39;4.22;;;1.45;;
39740;SDS011;25426;53.478;10.190;2022-07-17T13:15:10;4.40;;;1.58;;
39740;SDS011;25426;53.478;10.190;2022-07-17T13:17:41;3.08;;;1.25;;
39740;SDS011;25426;53.478;10.190;2022-07-17T13:20:12;2.75;;;1.48;;
39740;SDS011;25426;53.478;10.190;2022-07-17T13:22:43;3.13;;;1.00;;
39740;SDS011;25426;53.478;10.190;2022-07-17T13:25:14;4.22;;;1.10;;
39740;SDS011;25426;53.478;10.190;2022-07-17T13:27:45;3.10;;;1.27;;
39740;SDS011;25426;53.478;10.190;2022-07-17T13:30:16;2.50;;;1.00;;
39740;SDS011;25426;53.478;10.190;2022-07-17T13:32:47;2.83;;;1.48;;
39740;SDS011;25426;53.478;10.190;2022-07-17T13:35:17;3.08;;;1.17;;
39740;SDS011;25426;53.478;10.190;2022-07-17T13:37:48;2.38;;;1.15;;
39740;SDS011;25426;53.478;10.190;2022-07-17T13:40:20;2.75;;;1.10;;
39740;SDS011;25426;53.478;10.190;2022-07-17T13:42:51;5.05;;;1.40;;
39740;SDS011;25426;53.478;10.190;2022-07-17T13:45:22;2.58;;;1.00;;
39740;SDS011;25426;53.478;10.190;2022-07-17T13:47:53;4.63;;;1.10;;
39740;SDS011;25426;53.478;10.190;2022-07-17T13:50:24;2.72;;;1.23;;
39740;SDS011;25426;53.478;10.190;2022-07-17T13:52:55;1.38;;;0.90;;
39740;SDS011;25426;53.478;10.190;2022-07-17T13:55:27;3.58;;;1.15;;
39740;SDS011;25426;53.478;10.190;2022-07-17T13:57:58;5.35;;;1.30;;
39740;SDS011;25426;53.478;10.190;2022-07-17T14:00:29;4.57;;;1.23;;
39740;SDS011;25426;53.478;10.190;2022-07-17T14:03:00;6.40;;;1.42;;
39740;SDS011;25426;53.478;10.190;2022-07-17T14:05:31;3.97;;;1.10;;
39740;SDS011;25426;53.478;10.190;2022-07-17T14:08:02;2.42;;;1.02;;
39740;SDS011;25426;53.478;10.190;2022-07-17T14:10:33;4.20;;;1.20;;
39740;SDS011;25426;53.478;10.190;2022-07-17T14:13:04;2.20;;;1.25;;
39740;SDS011;25426;53.478;10.190;2022-07-17T14:15:35;2.30;;;0.93;;
39740;SDS011;25426;53.478;10.190;2022-07-17T14:18:06;3.13;;;1.30;;
39740;SDS011;25426;53.478;10.190;2022-07-17T14:20:37;3.85;;;1.50;;
39740;SDS011;25426;53.478;10.190;2022-07-17T14:23:08;2.20;;;1.10;;
39740;SDS011;25426;53.478;10.190;2022-07-17T14:25:39;3.63;;;1.40;;
39740;SDS011;25426;53.478;10.190;2022-07-17T14:28:10;3.13;;;1.13;;
39740;SDS011;25426;53.478;10.190;2022-07-17T14:30:41;2.95;;;0.90;;
39740;SDS011;25426;53.478;10.190;2022-07-17T14:33:12;4.72;;;1.10;;
39740;SDS011;25426;53.478;10.190;2022-07-17T14:35:43;2.83;;;1.10;;
39740;SDS011;25426;53.478;10.190;2022-07-17T14:38:14;4.45;;;1.08;;
39740;SDS011;25426;53.478;10.190;2022-07-17T14:40:45;4.78;;;1.50;;
39740;SDS011;25426;53.478;10.190;2022-07-17T14:43:15;2.38;;;1.35;;
39740;SDS011;25426;53.478;10.190;2022-07-17T14:45:46;2.92;;;1.55;;
39740;SDS011;25426;53.478;10.190;2022-07-17T14:48:17;3.72;;;1.60;;
39740;SDS011;25426;53.478;10.190;2022-07-17T14:50:48;2.45;;;0.90;;
39740;SDS011;25426;53.478;10.190;2022-07-17T14:53:19;2.63;;;1.30;;
39740;SDS011;25426;53.478;10.190;2022-07-17T14:55:50;3.25;;;1.50;;
39740;SDS011;25426;53.478;10.190;2022-07-17T14:58:20;3.30;;;1.25;;
39740;SDS011;25426;53.478;10.190;2022-07-17T15:00:51;6.22;;;1.60;;
39740;SDS011;25426;53.478;10.190;2022-07-17T15:03:22;4.43;;;1.52;;
39740;SDS011;25426;53.478;10.190;2022-07-17T15:05:53;4.68;;;1.67;;
39740;SDS011;25426;53.478;10.190;2022-07-17T15:08:24;3.25;;;1.85;;